sensor_id;sensor_type;location;lat;lon;timestamp;P1;durP1;ratioP1;P2;durP2;ratioP2
5273;SDS011;56254;50.956;7.010;2022-08-21T00:00:43;25.07;;;11.10;;
5273;SDS011;56254;50.956;7.010;2022-08-21T00:03:09;22.50;;;10.87;;
5273;SDS011;56254;50.956;7.010;2022-08-21T00:05:37;31.17;;;12.97;;
5273;SDS011;56254;50.956;7.010;2022-08-21T00:08:06;26.40;;;11.80;;
5273;SDS011;56254;50.956;7.010;2022-08-21T00:10:32;25.77;;;11.87;;
5273;SDS011;56254;50.956;7.010;2022-08-21T00:12:58;22.57;;;11.30;;
5273;SDS011;56254;50.956;7.010;2022-08-21T00:15:26;22.20;;;11.13;;
5273;SDS011;56254;50.956;7.010;2022-08-21T00:17:55;21.43;;;10.50;;
5273;SDS011;56254;50.956;7.010;2022-08-21T00:20:21;22.80;;;11.87;;
5273;SDS011;56254;50.956;7.010;2022-08-21T00:22:47;22.17;;;10.83;;
5273;SDS011;56254;50.956;7.010;2022-08-21T00:25:14;19.17;;;10.80;;
5273;SDS011;56254;50.956;7.010;2022-08-21T00:27:41;22.20;;;10.37;;
5273;SDS011;56254;50.956;7.010;2022-08-21T00:30:08;22.27;;;11.50;;
5273;SDS011;56254;50.956;7.010;2022-08-21T00:32:35;18.40;;;10.27;;
5273;SDS011;56254;50.956;7.010;2022-08-21T00:35:04;25.03;;;9.13;;
5273;SDS011;56254;50.956;7.010;2022-08-21T00:37:32;16.27;;;9.00;;
5273;SDS011;56254;50.956;7.010;2022-08-21T00:39:57;19.13;;;10.60;;
5273;SDS011;56254;50.956;7.010;2022-08-21T00:42:23;14.73;;;9.13;;
5273;SDS011;56254;50.956;7.010;2022-08-21T00:44:49;19.57;;;9.97;;
5273;SDS011;56254;50.956;7.010;2022-08-21T00:47:16;18.43;;;10.33;;
5273;SDS011;56254;50.956;7.010;2022-08-21T00:49:43;18.07;;;9.47;;
5273;SDS011;56254;50.956;7.010;2022-08-21T00:52:09;19.30;;;9.53;;
5273;SDS011;56254;50.956;7.010;2022-08-21T00:54:42;19.07;;;8.90;;
5273;SDS011;56254;50.956;7.010;2022-08-21T00:57:12;19.97;;;9.37;;
5273;SDS011;56254;50.956;7.010;2022-08-21T00:59:41;30.80;;;10.20;;
5273;SDS011;56254;50.956;7.010;2022-08-21T01:02:11;18.27;;;8.93;;
5273;SDS011;56254;50.956;7.010;2022-08-21T01:04:37;13.47;;;8.50;;
5273;SDS011;56254;50.956;7.010;2022-08-21T01:07:03;14.53;;;8.60;;
5273;SDS011;56254;50.956;7.010;2022-08-21T01:09:29;20.63;;;9.60;;
5273;SDS011;56254;50.956;7.010;2022-08-21T01:11:55;14.27;;;8.97;;
5273;SDS011;56254;50.956;7.010;2022-08-21T01:14:21;14.33;;;8.50;;
5273;SDS011;56254;50.956;7.010;2022-08-21T01:16:47;16.27;;;9.10;;
5273;SDS011;56254;50.956;7.010;2022-08-21T01:19:16;14.50;;;9.40;;
5273;SDS011;56254;50.956;7.010;2022-08-21T01:21:44;23.87;;;10.47;;
5273;SDS011;56254;50.956;7.010;2022-08-21T01:24:10;19.73;;;9.43;;
5273;SDS011;56254;50.956;7.010;2022-08-21T01:26:37;18.67;;;9.33;;
5273;SDS011;56254;50.956;7.010;2022-08-21T01:32:03;14.20;;;8.37;;
5273;SDS011;56254;50.956;7.010;2022-08-21T01:34:39;11.20;;;8.00;;
5273;SDS011;56254;50.956;7.010;2022-08-21T01:37:07;16.63;;;8.20;;
5273;SDS011;56254;50.956;7.010;2022-08-21T01:39:33;16.20;;;8.50;;
5273;SDS011;56254;50.956;7.010;2022-08-21T01:41:59;17.70;;;9.67;;
5273;SDS011;56254;50.956;7.010;2022-08-21T01:44:26;19.27;;;11.20;;
5273;SDS011;56254;50.956;7.010;2022-08-21T01:46:52;11.70;;;8.13;;
5273;SDS011;56254;50.956;7.010;2022-08-21T01:49:18;14.50;;;8.57;;
5273;SDS011;56254;50.956;7.010;2022-08-21T01:51:45;13.20;;;7.67;;
5273;SDS011;56254;50.956;7.010;2022-08-21T01:54:10;17.90;;;9.03;;
5273;SDS011;56254;50.956;7.010;2022-08-21T01:56:37;16.73;;;8.90;;
5273;SDS011;56254;50.956;7.010;2022-08-21T01:59:06;24.30;;;8.20;;
5273;SDS011;56254;50.956;7.010;2022-08-21T02:01:32;19.60;;;8.90;;
5273;SDS011;56254;50.956;7.010;2022-08-21T02:03:57;20.10;;;8.10;;
5273;SDS011;56254;50.956;7.010;2022-08-21T02:06:24;27.07;;;8.80;;
5273;SDS011;56254;50.956;7.010;2022-08-21T02:08:51;14.50;;;9.03;;
5273;SDS011;56254;50.956;7.010;2022-08-21T02:11:16;17.63;;;7.90;;
5273;SDS011;56254;50.956;7.010;2022-08-21T02:13:42;18.90;;;9.10;;
5273;SDS011;56254;50.956;7.010;2022-08-21T02:16:08;14.80;;;7.30;;
5273;SDS011;56254;50.956;7.010;2022-08-21T02:18:34;12.83;;;6.67;;
5273;SDS011;56254;50.956;7.010;2022-08-21T02:21:00;21.50;;;8.80;;
5273;SDS011;56254;50.956;7.010;2022-08-21T02:23:26;19.33;;;7.53;;
5273;SDS011;56254;50.956;7.010;2022-08-21T02:25:53;82.17;;;45.63;;
5273;SDS011;56254;50.956;7.010;2022-08-21T02:28:21;14.33;;;7.17;;
5273;SDS011;56254;50.956;7.010;2022-08-21T02:30:47;15.17;;;7.90;;
5273;SDS011;56254;50.956;7.010;2022-08-21T02:33:13;15.10;;;8.33;;
5273;SDS011;56254;50.956;7.010;2022-08-21T02:35:41;15.80;;;8.03;;
5273;SDS011;56254;50.956;7.010;2022-08-21T02:38:09;14.13;;;8.23;;
5273;SDS011;56254;50.956;7.010;2022-08-21T02:40:43;18.40;;;7.20;;
5273;SDS011;56254;50.956;7.010;2022-08-21T02:43:10;14.40;;;7.37;;
5273;SDS011;56254;50.956;7.010;2022-08-21T02:45:37;18.60;;;7.50;;
5273;SDS011;56254;50.956;7.010;2022-08-21T02:48:06;18.53;;;9.07;;
5273;SDS011;56254;50.956;7.010;2022-08-21T02:50:35;32.83;;;8.67;;
5273;SDS011;56254;50.956;7.010;2022-08-21T02:53:02;17.43;;;7.60;;
5273;SDS011;56254;50.956;7.010;2022-08-21T02:55:30;18.90;;;8.20;;
5273;SDS011;56254;50.956;7.010;2022-08-21T02:57:57;17.80;;;7.60;;
5273;SDS011;56254;50.956;7.010;2022-08-21T03:00:24;17.33;;;8.60;;
5273;SDS011;56254;50.956;7.010;2022-08-21T03:02:53;30.20;;;8.33;;
5273;SDS011;56254;50.956;7.010;2022-08-21T03:05:20;15.70;;;7.97;;
5273;SDS011;56254;50.956;7.010;2022-08-21T03:07:46;14.53;;;8.40;;
5273;SDS011;56254;50.956;7.010;2022-08-21T03:10:13;21.53;;;7.90;;
5273;SDS011;56254;50.956;7.010;2022-08-21T03:12:39;14.33;;;8.00;;
5273;SDS011;56254;50.956;7.010;2022-08-21T03:15:06;15.77;;;7.60;;
5273;SDS011;56254;50.956;7.010;2022-08-21T03:17:34;14.93;;;8.50;;
5273;SDS011;56254;50.956;7.010;2022-08-21T03:20:00;14.67;;;8.33;;
5273;SDS011;56254;50.956;7.010;2022-08-21T03:22:27;17.43;;;9.57;;
5273;SDS011;56254;50.956;7.010;2022-08-21T03:24:52;21.27;;;10.53;;
5273;SDS011;56254;50.956;7.010;2022-08-21T03:27:18;13.73;;;7.80;;
5273;SDS011;56254;50.956;7.010;2022-08-21T03:29:44;19.77;;;8.73;;
5273;SDS011;56254;50.956;7.010;2022-08-21T03:32:10;15.90;;;9.10;;
5273;SDS011;56254;50.956;7.010;2022-08-21T03:34:36;19.77;;;8.30;;
5273;SDS011;56254;50.956;7.010;2022-08-21T03:37:03;12.43;;;7.57;;
5273;SDS011;56254;50.956;7.010;2022-08-21T03:39:29;18.63;;;8.97;;
5273;SDS011;56254;50.956;7.010;2022-08-21T03:41:55;14.20;;;8.10;;
5273;SDS011;56254;50.956;7.010;2022-08-21T03:44:21;17.07;;;7.40;;
5273;SDS011;56254;50.956;7.010;2022-08-21T03:46:47;13.43;;;8.50;;
5273;SDS011;56254;50.956;7.010;2022-08-21T03:49:13;10.33;;;7.40;;
5273;SDS011;56254;50.956;7.010;2022-08-21T03:51:39;10.50;;;7.30;;
5273;SDS011;56254;50.956;7.010;2022-08-21T03:54:04;21.47;;;8.63;;
5273;SDS011;56254;50.956;7.010;2022-08-21T03:56:30;16.30;;;8.30;;
5273;SDS011;56254;50.956;7.010;2022-08-21T03:58:56;10.77;;;7.60;;
5273;SDS011;56254;50.956;7.010;2022-08-21T04:01:22;18.47;;;8.43;;
5273;SDS011;56254;50.956;7.010;2022-08-21T04:03:48;22.50;;;8.63;;
5273;SDS011;56254;50.956;7.010;2022-08-21T04:06:14;13.03;;;7.77;;
5273;SDS011;56254;50.956;7.010;2022-08-21T04:08:39;19.83;;;8.67;;
5273;SDS011;56254;50.956;7.010;2022-08-21T04:11:08;15.10;;;8.47;;
5273;SDS011;56254;50.956;7.010;2022-08-21T04:13:35;16.27;;;7.47;;
5273;SDS011;56254;50.956;7.010;2022-08-21T04:16:01;37.37;;;8.60;;
5273;SDS011;56254;50.956;7.010;2022-08-21T04:18:27;11.90;;;7.07;;
5273;SDS011;56254;50.956;7.010;2022-08-21T04:20:53;15.77;;;8.00;;
5273;SDS011;56254;50.956;7.010;2022-08-21T04:23:21;18.73;;;7.70;;
5273;SDS011;56254;50.956;7.010;2022-08-21T04:25:47;15.60;;;8.07;;
5273;SDS011;56254;50.956;7.010;2022-08-21T04:28:13;21.73;;;8.70;;
5273;SDS011;56254;50.956;7.010;2022-08-21T04:30:38;21.60;;;8.03;;
5273;SDS011;56254;50.956;7.010;2022-08-21T04:33:04;15.33;;;8.60;;
5273;SDS011;56254;50.956;7.010;2022-08-21T04:35:32;13.23;;;7.60;;
5273;SDS011;56254;50.956;7.010;2022-08-21T04:37:58;28.47;;;8.47;;
5273;SDS011;56254;50.956;7.010;2022-08-21T04:40:25;16.63;;;8.03;;
5273;SDS011;56254;50.956;7.010;2022-08-21T04:42:53;14.30;;;7.97;;
5273;SDS011;56254;50.956;7.010;2022-08-21T04:45:25;19.90;;;7.93;;
5273;SDS011;56254;50.956;7.010;2022-08-21T04:47:54;17.97;;;8.30;;
5273;SDS011;56254;50.956;7.010;2022-08-21T04:50:22;18.13;;;8.77;;
5273;SDS011;56254;50.956;7.010;2022-08-21T04:52:55;20.00;;;9.07;;
5273;SDS011;56254;50.956;7.010;2022-08-21T04:55:21;10.67;;;7.43;;
5273;SDS011;56254;50.956;7.010;2022-08-21T04:57:47;16.83;;;8.50;;
5273;SDS011;56254;50.956;7.010;2022-08-21T05:00:19;18.37;;;8.70;;
5273;SDS011;56254;50.956;7.010;2022-08-21T05:02:45;22.73;;;7.93;;
5273;SDS011;56254;50.956;7.010;2022-08-21T05:05:17;21.30;;;12.37;;
5273;SDS011;56254;50.956;7.010;2022-08-21T05:07:43;15.03;;;8.50;;
5273;SDS011;56254;50.956;7.010;2022-08-21T05:10:09;18.60;;;9.03;;
5273;SDS011;56254;50.956;7.010;2022-08-21T05:12:35;17.20;;;8.23;;
5273;SDS011;56254;50.956;7.010;2022-08-21T05:15:02;19.73;;;8.83;;
5273;SDS011;56254;50.956;7.010;2022-08-21T05:17:28;19.07;;;8.57;;
5273;SDS011;56254;50.956;7.010;2022-08-21T05:19:54;17.63;;;7.80;;
5273;SDS011;56254;50.956;7.010;2022-08-21T05:22:21;12.37;;;7.87;;
5273;SDS011;56254;50.956;7.010;2022-08-21T05:24:47;14.00;;;8.10;;
5273;SDS011;56254;50.956;7.010;2022-08-21T05:27:13;18.20;;;7.70;;
5273;SDS011;56254;50.956;7.010;2022-08-21T05:29:38;15.87;;;8.43;;
5273;SDS011;56254;50.956;7.010;2022-08-21T05:32:08;15.50;;;8.60;;
5273;SDS011;56254;50.956;7.010;2022-08-21T05:34:35;15.80;;;8.27;;
5273;SDS011;56254;50.956;7.010;2022-08-21T05:37:01;19.37;;;8.20;;
5273;SDS011;56254;50.956;7.010;2022-08-21T05:39:27;16.40;;;8.23;;
5273;SDS011;56254;50.956;7.010;2022-08-21T05:41:53;15.27;;;8.63;;
5273;SDS011;56254;50.956;7.010;2022-08-21T05:44:18;12.30;;;8.07;;
5273;SDS011;56254;50.956;7.010;2022-08-21T05:46:44;25.17;;;8.73;;
5273;SDS011;56254;50.956;7.010;2022-08-21T05:49:10;15.07;;;9.07;;
5273;SDS011;56254;50.956;7.010;2022-08-21T05:51:36;17.10;;;8.57;;
5273;SDS011;56254;50.956;7.010;2022-08-21T05:54:04;11.67;;;8.00;;
5273;SDS011;56254;50.956;7.010;2022-08-21T05:56:29;21.20;;;9.10;;
5273;SDS011;56254;50.956;7.010;2022-08-21T05:58:55;22.53;;;8.97;;
5273;SDS011;56254;50.956;7.010;2022-08-21T06:01:21;13.00;;;8.73;;
5273;SDS011;56254;50.956;7.010;2022-08-21T06:03:47;15.43;;;9.00;;
5273;SDS011;56254;50.956;7.010;2022-08-21T06:06:12;18.60;;;9.90;;
5273;SDS011;56254;50.956;7.010;2022-08-21T06:08:38;14.27;;;8.13;;
5273;SDS011;56254;50.956;7.010;2022-08-21T06:11:04;14.93;;;9.23;;
5273;SDS011;56254;50.956;7.010;2022-08-21T06:13:31;23.07;;;9.53;;
5273;SDS011;56254;50.956;7.010;2022-08-21T06:16:01;20.03;;;9.20;;
5273;SDS011;56254;50.956;7.010;2022-08-21T06:18:31;16.73;;;9.37;;
5273;SDS011;56254;50.956;7.010;2022-08-21T06:20:57;13.97;;;9.00;;
5273;SDS011;56254;50.956;7.010;2022-08-21T06:23:22;17.10;;;9.33;;
5273;SDS011;56254;50.956;7.010;2022-08-21T06:25:48;14.90;;;8.10;;
5273;SDS011;56254;50.956;7.010;2022-08-21T06:28:14;15.63;;;8.47;;
5273;SDS011;56254;50.956;7.010;2022-08-21T06:30:39;15.90;;;8.70;;
5273;SDS011;56254;50.956;7.010;2022-08-21T06:33:05;15.73;;;7.73;;
5273;SDS011;56254;50.956;7.010;2022-08-21T06:35:32;19.60;;;8.67;;
5273;SDS011;56254;50.956;7.010;2022-08-21T06:37:57;16.50;;;8.30;;
5273;SDS011;56254;50.956;7.010;2022-08-21T06:40:23;24.13;;;8.57;;
5273;SDS011;56254;50.956;7.010;2022-08-21T06:42:50;12.03;;;6.70;;
5273;SDS011;56254;50.956;7.010;2022-08-21T06:45:16;15.47;;;6.67;;
5273;SDS011;56254;50.956;7.010;2022-08-21T06:47:41;10.63;;;6.30;;
5273;SDS011;56254;50.956;7.010;2022-08-21T06:50:07;14.50;;;6.30;;
5273;SDS011;56254;50.956;7.010;2022-08-21T06:52:36;10.33;;;6.60;;
5273;SDS011;56254;50.956;7.010;2022-08-21T06:55:04;19.50;;;6.47;;
5273;SDS011;56254;50.956;7.010;2022-08-21T06:57:31;16.53;;;6.50;;
5273;SDS011;56254;50.956;7.010;2022-08-21T06:59:57;10.23;;;6.37;;
5273;SDS011;56254;50.956;7.010;2022-08-21T07:02:23;13.03;;;7.13;;
5273;SDS011;56254;50.956;7.010;2022-08-21T07:04:48;15.17;;;6.67;;
5273;SDS011;56254;50.956;7.010;2022-08-21T07:07:14;10.77;;;6.50;;
5273;SDS011;56254;50.956;7.010;2022-08-21T07:09:40;18.80;;;6.60;;
5273;SDS011;56254;50.956;7.010;2022-08-21T07:12:05;14.20;;;6.60;;
5273;SDS011;56254;50.956;7.010;2022-08-21T07:14:31;15.60;;;7.33;;
5273;SDS011;56254;50.956;7.010;2022-08-21T07:16:57;16.70;;;7.17;;
5273;SDS011;56254;50.956;7.010;2022-08-21T07:19:23;16.50;;;7.50;;
5273;SDS011;56254;50.956;7.010;2022-08-21T07:21:48;16.43;;;6.13;;
5273;SDS011;56254;50.956;7.010;2022-08-21T07:24:14;12.67;;;5.43;;
5273;SDS011;56254;50.956;7.010;2022-08-21T07:26:40;11.27;;;5.53;;
5273;SDS011;56254;50.956;7.010;2022-08-21T07:29:06;12.93;;;5.40;;
5273;SDS011;56254;50.956;7.010;2022-08-21T07:31:31;14.30;;;5.27;;
5273;SDS011;56254;50.956;7.010;2022-08-21T07:33:57;8.03;;;4.80;;
5273;SDS011;56254;50.956;7.010;2022-08-21T07:36:23;11.97;;;5.20;;
5273;SDS011;56254;50.956;7.010;2022-08-21T07:38:49;20.77;;;5.33;;
5273;SDS011;56254;50.956;7.010;2022-08-21T07:41:22;9.57;;;4.33;;
5273;SDS011;56254;50.956;7.010;2022-08-21T07:43:51;10.03;;;4.77;;
5273;SDS011;56254;50.956;7.010;2022-08-21T07:46:17;16.17;;;4.27;;
5273;SDS011;56254;50.956;7.010;2022-08-21T07:48:43;12.60;;;4.00;;
5273;SDS011;56254;50.956;7.010;2022-08-21T07:51:10;9.57;;;4.47;;
5273;SDS011;56254;50.956;7.010;2022-08-21T07:53:37;8.40;;;3.50;;
5273;SDS011;56254;50.956;7.010;2022-08-21T07:56:04;10.97;;;3.60;;
5273;SDS011;56254;50.956;7.010;2022-08-21T07:58:31;8.00;;;3.40;;
5273;SDS011;56254;50.956;7.010;2022-08-21T08:00:57;9.50;;;3.20;;
5273;SDS011;56254;50.956;7.010;2022-08-21T08:03:23;16.53;;;3.30;;
5273;SDS011;56254;50.956;7.010;2022-08-21T08:05:48;14.03;;;3.60;;
5273;SDS011;56254;50.956;7.010;2022-08-21T08:08:14;8.33;;;4.00;;
5273;SDS011;56254;50.956;7.010;2022-08-21T08:10:40;10.80;;;3.43;;
5273;SDS011;56254;50.956;7.010;2022-08-21T08:13:07;9.40;;;3.93;;
5273;SDS011;56254;50.956;7.010;2022-08-21T08:15:33;16.23;;;2.80;;
5273;SDS011;56254;50.956;7.010;2022-08-21T08:17:59;13.30;;;2.63;;
5273;SDS011;56254;50.956;7.010;2022-08-21T08:20:25;9.33;;;2.70;;
5273;SDS011;56254;50.956;7.010;2022-08-21T08:22:51;16.97;;;3.30;;
5273;SDS011;56254;50.956;7.010;2022-08-21T08:25:18;10.13;;;3.47;;
5273;SDS011;56254;50.956;7.010;2022-08-21T08:27:46;5.30;;;2.00;;
5273;SDS011;56254;50.956;7.010;2022-08-21T08:30:12;10.17;;;2.57;;
5273;SDS011;56254;50.956;7.010;2022-08-21T08:32:39;7.53;;;2.30;;
5273;SDS011;56254;50.956;7.010;2022-08-21T08:35:06;6.40;;;3.03;;
5273;SDS011;56254;50.956;7.010;2022-08-21T08:37:32;8.33;;;1.87;;
5273;SDS011;56254;50.956;7.010;2022-08-21T08:39:58;17.07;;;2.60;;
5273;SDS011;56254;50.956;7.010;2022-08-21T08:42:28;5.67;;;2.47;;
5273;SDS011;56254;50.956;7.010;2022-08-21T08:45:18;7.93;;;2.50;;
5273;SDS011;56254;50.956;7.010;2022-08-21T08:47:49;7.40;;;2.07;;
5273;SDS011;56254;50.956;7.010;2022-08-21T08:50:25;7.53;;;2.13;;
5273;SDS011;56254;50.956;7.010;2022-08-21T08:52:59;10.07;;;2.43;;
5273;SDS011;56254;50.956;7.010;2022-08-21T08:58:04;9.20;;;2.70;;
5273;SDS011;56254;50.956;7.010;2022-08-21T09:00:30;16.47;;;2.90;;
5273;SDS011;56254;50.956;7.010;2022-08-21T09:02:57;14.00;;;2.67;;
5273;SDS011;56254;50.956;7.010;2022-08-21T09:05:27;6.27;;;2.30;;
5273;SDS011;56254;50.956;7.010;2022-08-21T09:18:54;13.37;;;2.63;;
5273;SDS011;56254;50.956;7.010;2022-08-21T09:27:03;6.73;;;2.20;;
5273;SDS011;56254;50.956;7.010;2022-08-21T09:29:35;12.33;;;2.67;;
5273;SDS011;56254;50.956;7.010;2022-08-21T09:32:37;8.00;;;2.00;;
5273;SDS011;56254;50.956;7.010;2022-08-21T09:37:55;8.10;;;1.90;;
5273;SDS011;56254;50.956;7.010;2022-08-21T09:43:10;18.07;;;2.30;;
5273;SDS011;56254;50.956;7.010;2022-08-21T09:45:40;8.03;;;2.70;;
5273;SDS011;56254;50.956;7.010;2022-08-21T09:48:28;6.43;;;2.07;;
5273;SDS011;56254;50.956;7.010;2022-08-21T09:51:04;6.17;;;2.03;;
5273;SDS011;56254;50.956;7.010;2022-08-21T09:53:32;8.13;;;2.13;;
5273;SDS011;56254;50.956;7.010;2022-08-21T09:56:02;7.00;;;2.13;;
5273;SDS011;56254;50.956;7.010;2022-08-21T09:58:50;16.10;;;2.53;;
5273;SDS011;56254;50.956;7.010;2022-08-21T10:01:20;8.50;;;2.27;;
5273;SDS011;56254;50.956;7.010;2022-08-21T10:03:48;11.90;;;2.17;;
5273;SDS011;56254;50.956;7.010;2022-08-21T10:06:21;11.40;;;2.33;;
5273;SDS011;56254;50.956;7.010;2022-08-21T10:08:49;4.90;;;1.80;;
5273;SDS011;56254;50.956;7.010;2022-08-21T10:11:16;7.70;;;2.80;;
5273;SDS011;56254;50.956;7.010;2022-08-21T10:14:18;19.80;;;2.50;;
5273;SDS011;56254;50.956;7.010;2022-08-21T10:22:34;6.07;;;1.80;;
5273;SDS011;56254;50.956;7.010;2022-08-21T10:28:28;10.17;;;2.53;;
5273;SDS011;56254;50.956;7.010;2022-08-21T10:31:20;7.20;;;2.23;;
5273;SDS011;56254;50.956;7.010;2022-08-21T10:34:08;8.47;;;2.50;;
5273;SDS011;56254;50.956;7.010;2022-08-21T10:39:37;9.33;;;3.57;;
5273;SDS011;56254;50.956;7.010;2022-08-21T10:47:55;8.90;;;2.47;;
5273;SDS011;56254;50.956;7.010;2022-08-21T10:50:31;6.23;;;2.17;;
5273;SDS011;56254;50.956;7.010;2022-08-21T10:58:45;12.33;;;2.30;;
5273;SDS011;56254;50.956;7.010;2022-08-21T11:01:13;5.33;;;2.17;;
5273;SDS011;56254;50.956;7.010;2022-08-21T11:03:42;5.50;;;1.83;;
5273;SDS011;56254;50.956;7.010;2022-08-21T11:06:27;11.20;;;2.27;;
5273;SDS011;56254;50.956;7.010;2022-08-21T11:09:10;8.70;;;2.10;;
5273;SDS011;56254;50.956;7.010;2022-08-21T11:11:39;8.80;;;2.40;;
5273;SDS011;56254;50.956;7.010;2022-08-21T11:14:15;7.13;;;1.77;;
5273;SDS011;56254;50.956;7.010;2022-08-21T11:16:43;9.00;;;2.90;;
5273;SDS011;56254;50.956;7.010;2022-08-21T11:19:33;8.63;;;2.50;;
5273;SDS011;56254;50.956;7.010;2022-08-21T11:22:26;6.40;;;1.90;;
5273;SDS011;56254;50.956;7.010;2022-08-21T11:28:08;6.30;;;1.63;;
5273;SDS011;56254;50.956;7.010;2022-08-21T11:30:39;5.10;;;2.03;;
5273;SDS011;56254;50.956;7.010;2022-08-21T11:36:15;7.90;;;2.40;;
5273;SDS011;56254;50.956;7.010;2022-08-21T11:47:09;6.97;;;2.37;;
5273;SDS011;56254;50.956;7.010;2022-08-21T11:49:54;6.50;;;2.23;;
5273;SDS011;56254;50.956;7.010;2022-08-21T11:52:32;8.10;;;2.40;;
5273;SDS011;56254;50.956;7.010;2022-08-21T11:55:30;5.30;;;1.73;;
5273;SDS011;56254;50.956;7.010;2022-08-21T11:57:58;4.93;;;2.00;;
5273;SDS011;56254;50.956;7.010;2022-08-21T12:00:36;4.60;;;1.77;;
5273;SDS011;56254;50.956;7.010;2022-08-21T12:03:25;9.13;;;1.83;;
5273;SDS011;56254;50.956;7.010;2022-08-21T12:06:01;7.60;;;2.27;;
5273;SDS011;56254;50.956;7.010;2022-08-21T12:08:36;6.63;;;2.73;;
5273;SDS011;56254;50.956;7.010;2022-08-21T12:11:05;9.37;;;2.30;;
5273;SDS011;56254;50.956;7.010;2022-08-21T12:13:54;2.53;;;1.43;;
5273;SDS011;56254;50.956;7.010;2022-08-21T12:16:44;3.83;;;1.60;;
5273;SDS011;56254;50.956;7.010;2022-08-21T12:19:14;4.50;;;2.40;;
5273;SDS011;56254;50.956;7.010;2022-08-21T12:24:39;8.50;;;2.60;;
5273;SDS011;56254;50.956;7.010;2022-08-21T12:27:29;11.20;;;2.40;;
5273;SDS011;56254;50.956;7.010;2022-08-21T12:30:06;4.57;;;1.97;;
5273;SDS011;56254;50.956;7.010;2022-08-21T12:32:55;6.63;;;2.13;;
5273;SDS011;56254;50.956;7.010;2022-08-21T12:35:44;5.60;;;2.03;;
5273;SDS011;56254;50.956;7.010;2022-08-21T12:38:14;7.50;;;3.30;;
5273;SDS011;56254;50.956;7.010;2022-08-21T12:40:54;7.20;;;1.87;;
5273;SDS011;56254;50.956;7.010;2022-08-21T12:43:29;8.90;;;2.10;;
5273;SDS011;56254;50.956;7.010;2022-08-21T12:45:59;4.33;;;1.90;;
5273;SDS011;56254;50.956;7.010;2022-08-21T12:48:48;3.80;;;1.80;;
5273;SDS011;56254;50.956;7.010;2022-08-21T12:51:24;7.63;;;1.90;;
5273;SDS011;56254;50.956;7.010;2022-08-21T12:53:57;6.80;;;1.77;;
5273;SDS011;56254;50.956;7.010;2022-08-21T12:56:25;5.43;;;1.67;;
5273;SDS011;56254;50.956;7.010;2022-08-21T12:59:11;8.13;;;2.27;;
5273;SDS011;56254;50.956;7.010;2022-08-21T13:01:39;4.33;;;1.90;;
5273;SDS011;56254;50.956;7.010;2022-08-21T13:04:17;10.40;;;2.10;;
5273;SDS011;56254;50.956;7.010;2022-08-21T13:06:47;10.50;;;1.67;;
5273;SDS011;56254;50.956;7.010;2022-08-21T13:09:18;15.57;;;1.80;;
5273;SDS011;56254;50.956;7.010;2022-08-21T13:11:50;6.60;;;2.10;;
5273;SDS011;56254;50.956;7.010;2022-08-21T13:14:25;3.23;;;1.43;;
5273;SDS011;56254;50.956;7.010;2022-08-21T13:17:03;2.77;;;1.60;;
5273;SDS011;56254;50.956;7.010;2022-08-21T13:19:30;5.00;;;2.20;;
5273;SDS011;56254;50.956;7.010;2022-08-21T13:21:57;12.10;;;2.10;;
5273;SDS011;56254;50.956;7.010;2022-08-21T13:24:28;3.93;;;1.63;;
5273;SDS011;56254;50.956;7.010;2022-08-21T13:27:01;8.50;;;2.50;;
5273;SDS011;56254;50.956;7.010;2022-08-21T13:29:32;6.53;;;2.20;;
5273;SDS011;56254;50.956;7.010;2022-08-21T13:32:02;6.40;;;2.13;;
5273;SDS011;56254;50.956;7.010;2022-08-21T13:34:35;4.93;;;2.30;;
5273;SDS011;56254;50.956;7.010;2022-08-21T13:37:06;5.87;;;2.13;;
5273;SDS011;56254;50.956;7.010;2022-08-21T13:39:33;11.13;;;2.60;;
5273;SDS011;56254;50.956;7.010;2022-08-21T13:42:01;5.27;;;2.13;;
5273;SDS011;56254;50.956;7.010;2022-08-21T13:44:35;4.17;;;1.70;;
5273;SDS011;56254;50.956;7.010;2022-08-21T13:47:05;13.17;;;3.10;;
5273;SDS011;56254;50.956;7.010;2022-08-21T13:49:33;6.53;;;1.83;;
5273;SDS011;56254;50.956;7.010;2022-08-21T13:52:05;6.87;;;2.27;;
5273;SDS011;56254;50.956;7.010;2022-08-21T13:54:50;4.33;;;1.80;;
5273;SDS011;56254;50.956;7.010;2022-08-21T13:57:23;2.90;;;1.93;;
5273;SDS011;56254;50.956;7.010;2022-08-21T13:59:51;8.53;;;2.77;;
5273;SDS011;56254;50.956;7.010;2022-08-21T14:02:23;3.90;;;2.00;;
5273;SDS011;56254;50.956;7.010;2022-08-21T14:05:00;6.87;;;2.03;;
5273;SDS011;56254;50.956;7.010;2022-08-21T14:07:29;6.53;;;2.03;;
5273;SDS011;56254;50.956;7.010;2022-08-21T14:10:18;4.30;;;1.90;;
5273;SDS011;56254;50.956;7.010;2022-08-21T14:12:53;5.53;;;2.23;;
5273;SDS011;56254;50.956;7.010;2022-08-21T14:15:23;5.80;;;1.80;;
5273;SDS011;56254;50.956;7.010;2022-08-21T14:17:53;8.83;;;1.90;;
5273;SDS011;56254;50.956;7.010;2022-08-21T14:20:30;9.20;;;2.73;;
5273;SDS011;56254;50.956;7.010;2022-08-21T14:22:58;6.37;;;1.57;;
5273;SDS011;56254;50.956;7.010;2022-08-21T14:32:52;12.23;;;3.40;;
5273;SDS011;56254;50.956;7.010;2022-08-21T14:35:18;10.10;;;2.63;;
5273;SDS011;56254;50.956;7.010;2022-08-21T14:37:46;6.90;;;3.00;;
5273;SDS011;56254;50.956;7.010;2022-08-21T14:40:15;4.90;;;1.70;;
5273;SDS011;56254;50.956;7.010;2022-08-21T14:42:42;4.00;;;2.20;;
5273;SDS011;56254;50.956;7.010;2022-08-21T14:45:14;6.83;;;2.10;;
5273;SDS011;56254;50.956;7.010;2022-08-21T14:47:41;5.97;;;2.30;;
5273;SDS011;56254;50.956;7.010;2022-08-21T14:50:08;3.80;;;1.87;;
5273;SDS011;56254;50.956;7.010;2022-08-21T14:52:35;4.93;;;2.17;;
5273;SDS011;56254;50.956;7.010;2022-08-21T14:55:02;5.10;;;2.23;;
5273;SDS011;56254;50.956;7.010;2022-08-21T14:57:29;14.47;;;4.33;;
5273;SDS011;56254;50.956;7.010;2022-08-21T14:59:56;9.97;;;3.13;;
5273;SDS011;56254;50.956;7.010;2022-08-21T15:02:22;6.30;;;2.53;;
5273;SDS011;56254;50.956;7.010;2022-08-21T15:04:47;4.63;;;1.90;;
5273;SDS011;56254;50.956;7.010;2022-08-21T15:07:13;9.30;;;1.77;;
5273;SDS011;56254;50.956;7.010;2022-08-21T15:09:39;2.93;;;1.50;;
5273;SDS011;56254;50.956;7.010;2022-08-21T15:12:05;3.73;;;1.93;;
5273;SDS011;56254;50.956;7.010;2022-08-21T15:14:33;7.57;;;2.70;;
5273;SDS011;56254;50.956;7.010;2022-08-21T15:17:01;8.83;;;4.33;;
5273;SDS011;56254;50.956;7.010;2022-08-21T15:19:28;8.13;;;3.30;;
5273;SDS011;56254;50.956;7.010;2022-08-21T15:21:55;10.90;;;4.70;;
5273;SDS011;56254;50.956;7.010;2022-08-21T15:24:20;10.17;;;5.37;;
5273;SDS011;56254;50.956;7.010;2022-08-21T15:26:46;6.00;;;3.57;;
5273;SDS011;56254;50.956;7.010;2022-08-21T15:29:12;16.10;;;2.40;;
5273;SDS011;56254;50.956;7.010;2022-08-21T15:31:49;5.70;;;2.00;;
5273;SDS011;56254;50.956;7.010;2022-08-21T15:34:17;3.93;;;1.87;;
5273;SDS011;56254;50.956;7.010;2022-08-21T15:36:43;3.40;;;1.90;;
5273;SDS011;56254;50.956;7.010;2022-08-21T15:39:08;3.80;;;1.40;;
5273;SDS011;56254;50.956;7.010;2022-08-21T15:41:34;18.10;;;5.90;;
5273;SDS011;56254;50.956;7.010;2022-08-21T15:44:00;22.23;;;10.93;;
5273;SDS011;56254;50.956;7.010;2022-08-21T15:46:25;20.30;;;9.37;;
5273;SDS011;56254;50.956;7.010;2022-08-21T15:48:51;24.90;;;12.90;;
5273;SDS011;56254;50.956;7.010;2022-08-21T15:51:17;12.20;;;6.03;;
5273;SDS011;56254;50.956;7.010;2022-08-21T15:53:43;14.30;;;6.70;;
5273;SDS011;56254;50.956;7.010;2022-08-21T15:56:17;4.77;;;3.00;;
5273;SDS011;56254;50.956;7.010;2022-08-21T15:58:52;4.30;;;2.20;;
5273;SDS011;56254;50.956;7.010;2022-08-21T16:01:22;6.03;;;1.97;;
5273;SDS011;56254;50.956;7.010;2022-08-21T16:03:48;2.83;;;2.63;;
5273;SDS011;56254;50.956;7.010;2022-08-21T16:06:16;6.83;;;2.23;;
5273;SDS011;56254;50.956;7.010;2022-08-21T16:08:42;9.87;;;1.90;;
5273;SDS011;56254;50.956;7.010;2022-08-21T16:11:08;2.93;;;2.00;;
5273;SDS011;56254;50.956;7.010;2022-08-21T16:13:36;4.10;;;2.10;;
5273;SDS011;56254;50.956;7.010;2022-08-21T16:16:04;3.63;;;1.90;;
5273;SDS011;56254;50.956;7.010;2022-08-21T16:18:31;4.17;;;2.07;;
5273;SDS011;56254;50.956;7.010;2022-08-21T16:20:57;3.73;;;2.40;;